sensor_id;sensor_type;location;lat;lon;timestamp;temperature;humidity
20384;DHT22;46458;50.966;7.002;2024-01-07T00:00:15;4.10;99.90
20384;DHT22;46458;50.966;7.002;2024-01-07T00:02:44;4.00;1.00
20384;DHT22;46458;50.966;7.002;2024-01-07T00:05:13;4.10;1.00
20384;DHT22;46458;50.966;7.002;2024-01-07T00:07:42;4.10;99.90
20384;DHT22;46458;50.966;7.002;2024-01-07T00:10:11;4.10;22.30
20384;DHT22;46458;50.966;7.002;2024-01-07T00:12:42;4.20;1.00
20384;DHT22;46458;50.966;7.002;2024-01-07T00:15:11;4.20;1.00
20384;DHT22;46458;50.966;7.002;2024-01-07T00:17:39;4.30;1.00
20384;DHT22;46458;50.966;7.002;2024-01-07T00:20:09;4.10;1.00
20384;DHT22;46458;50.966;7.002;2024-01-07T00:22:38;4.10;1.00
20384;DHT22;46458;50.966;7.002;2024-01-07T00:25:08;4.10;1.00
20384;DHT22;46458;50.966;7.002;2024-01-07T00:27:36;4.00;1.00
20384;DHT22;46458;50.966;7.002;2024-01-07T00:30:09;4.20;1.00
20384;DHT22;46458;50.966;7.002;2024-01-07T00:32:38;4.10;1.00
20384;DHT22;46458;50.966;7.002;2024-01-07T00:35:08;4.20;1.00
20384;DHT22;46458;50.966;7.002;2024-01-07T00:37:36;4.20;99.90
20384;DHT22;46458;50.966;7.002;2024-01-07T00:40:07;4.30;1.00
20384;DHT22;46458;50.966;7.002;2024-01-07T00:42:36;4.20;99.90
20384;DHT22;46458;50.966;7.002;2024-01-07T00:45:08;4.30;1.00
20384;DHT22;46458;50.966;7.002;2024-01-07T00:47:37;4.20;1.00
20384;DHT22;46458;50.966;7.002;2024-01-07T00:50:06;4.30;99.90
20384;DHT22;46458;50.966;7.002;2024-01-07T00:52:35;4.30;1.00
20384;DHT22;46458;50.966;7.002;2024-01-07T00:55:08;4.20;1.00
20384;DHT22;46458;50.966;7.002;2024-01-07T00:57:37;4.20;1.00
20384;DHT22;46458;50.966;7.002;2024-01-07T01:00:10;4.30;99.90
20384;DHT22;46458;50.966;7.002;2024-01-07T01:02:39;4.10;1.00
20384;DHT22;46458;50.966;7.002;2024-01-07T01:05:08;4.00;1.00
20384;DHT22;46458;50.966;7.002;2024-01-07T01:07:37;4.10;59.40
20384;DHT22;46458;50.966;7.002;2024-01-07T01:10:08;4.10;1.00
20384;DHT22;46458;50.966;7.002;2024-01-07T01:12:36;4.20;99.90
20384;DHT22;46458;50.966;7.002;2024-01-07T01:15:06;4.00;99.90
20384;DHT22;46458;50.966;7.002;2024-01-07T01:17:37;4.10;99.90
20384;DHT22;46458;50.966;7.002;2024-01-07T01:20:07;4.20;71.50
20384;DHT22;46458;50.966;7.002;2024-01-07T01:22:36;4.20;99.90
20384;DHT22;46458;50.966;7.002;2024-01-07T01:25:06;4.30;1.00
20384;DHT22;46458;50.966;7.002;2024-01-07T01:27:36;4.30;99.90
20384;DHT22;46458;50.966;7.002;2024-01-07T01:30:06;4.20;99.90
20384;DHT22;46458;50.966;7.002;2024-01-07T01:32:38;4.20;1.00
20384;DHT22;46458;50.966;7.002;2024-01-07T01:35:08;4.10;1.00
20384;DHT22;46458;50.966;7.002;2024-01-07T01:37:37;4.20;1.00
20384;DHT22;46458;50.966;7.002;2024-01-07T01:40:07;4.20;1.00
20384;DHT22;46458;50.966;7.002;2024-01-07T01:42:36;3.90;1.00
20384;DHT22;46458;50.966;7.002;2024-01-07T01:45:06;4.30;1.00
20384;DHT22;46458;50.966;7.002;2024-01-07T01:47:37;4.30;1.00
20384;DHT22;46458;50.966;7.002;2024-01-07T01:50:07;4.30;99.90
20384;DHT22;46458;50.966;7.002;2024-01-07T01:52:36;4.40;1.00
20384;DHT22;46458;50.966;7.002;2024-01-07T01:55:06;4.30;1.00
20384;DHT22;46458;50.966;7.002;2024-01-07T01:57:37;4.30;1.00
20384;DHT22;46458;50.966;7.002;2024-01-07T02:00:08;4.10;1.00
20384;DHT22;46458;50.966;7.002;2024-01-07T02:02:39;4.30;1.00
20384;DHT22;46458;50.966;7.002;2024-01-07T02:05:08;4.30;1.00
20384;DHT22;46458;50.966;7.002;2024-01-07T02:07:39;4.20;1.00
20384;DHT22;46458;50.966;7.002;2024-01-07T02:10:09;4.20;99.90
20384;DHT22;46458;50.966;7.002;2024-01-07T02:12:38;4.20;1.00
20384;DHT22;46458;50.966;7.002;2024-01-07T02:15:08;4.20;1.00
20384;DHT22;46458;50.966;7.002;2024-01-07T02:17:39;4.30;99.90
20384;DHT22;46458;50.966;7.002;2024-01-07T02:20:09;4.20;1.00
20384;DHT22;46458;50.966;7.002;2024-01-07T02:22:38;4.10;99.90
20384;DHT22;46458;50.966;7.002;2024-01-07T02:25:10;4.80;1.00
20384;DHT22;46458;50.966;7.002;2024-01-07T02:27:39;4.20;99.90
20384;DHT22;46458;50.966;7.002;2024-01-07T02:30:08;4.20;99.90
20384;DHT22;46458;50.966;7.002;2024-01-07T02:32:37;4.30;1.00
20384;DHT22;46458;50.966;7.002;2024-01-07T02:35:06;4.30;1.00
20384;DHT22;46458;50.966;7.002;2024-01-07T02:37:35;4.30;28.80
20384;DHT22;46458;50.966;7.002;2024-01-07T02:40:05;4.30;1.00
20384;DHT22;46458;50.966;7.002;2024-01-07T02:42:37;4.40;1.00
20384;DHT22;46458;50.966;7.002;2024-01-07T02:45:06;4.30;1.00
20384;DHT22;46458;50.966;7.002;2024-01-07T02:47:35;4.30;99.90
20384;DHT22;46458;50.966;7.002;2024-01-07T02:50:05;4.20;99.90
20384;DHT22;46458;50.966;7.002;2024-01-07T02:52:34;4.10;1.00
20384;DHT22;46458;50.966;7.002;2024-01-07T02:55:03;4.10;1.00
20384;DHT22;46458;50.966;7.002;2024-01-07T02:57:32;4.10;1.00
20384;DHT22;46458;50.966;7.002;2024-01-07T03:00:06;4.40;1.00
20384;DHT22;46458;50.966;7.002;2024-01-07T03:02:34;4.30;1.00
20384;DHT22;46458;50.966;7.002;2024-01-07T03:05:04;4.20;1.00
20384;DHT22;46458;50.966;7.002;2024-01-07T03:07:33;4.20;1.00
20384;DHT22;46458;50.966;7.002;2024-01-07T03:10:01;4.00;99.90
20384;DHT22;46458;50.966;7.002;2024-01-07T03:12:30;4.30;1.00
20384;DHT22;46458;50.966;7.002;2024-01-07T03:14:59;4.30;1.00
20384;DHT22;46458;50.966;7.002;2024-01-07T03:17:31;4.30;99.90
20384;DHT22;46458;50.966;7.002;2024-01-07T03:20:00;4.20;99.90
20384;DHT22;46458;50.966;7.002;2024-01-07T03:22:29;4.20;1.00
20384;DHT22;46458;50.966;7.002;2024-01-07T03:24:57;4.20;1.00
20384;DHT22;46458;50.966;7.002;2024-01-07T03:27:27;4.10;1.00
20384;DHT22;46458;50.966;7.002;2024-01-07T03:29:56;4.20;99.90
20384;DHT22;46458;50.966;7.002;2024-01-07T03:32:25;4.10;1.00
20384;DHT22;46458;50.966;7.002;2024-01-07T03:34:56;4.20;1.00
20384;DHT22;46458;50.966;7.002;2024-01-07T03:37:25;4.10;1.00
20384;DHT22;46458;50.966;7.002;2024-01-07T03:39:54;4.10;99.90
20384;DHT22;46458;50.966;7.002;2024-01-07T03:42:23;4.20;1.00
20384;DHT22;46458;50.966;7.002;2024-01-07T03:44:52;4.10;99.90
20384;DHT22;46458;50.966;7.002;2024-01-07T03:47:21;4.10;1.00
20384;DHT22;46458;50.966;7.002;2024-01-07T03:49:49;4.20;1.00
20384;DHT22;46458;50.966;7.002;2024-01-07T03:52:21;4.20;1.00
20384;DHT22;46458;50.966;7.002;2024-01-07T03:54:49;4.10;1.00
20384;DHT22;46458;50.966;7.002;2024-01-07T03:57:18;4.10;74.50
20384;DHT22;46458;50.966;7.002;2024-01-07T03:59:47;4.00;95.30
20384;DHT22;46458;50.966;7.002;2024-01-07T04:02:16;4.00;1.00
20384;DHT22;46458;50.966;7.002;2024-01-07T04:04:45;3.90;1.00
20384;DHT22;46458;50.966;7.002;2024-01-07T04:07:13;3.90;1.00
20384;DHT22;46458;50.966;7.002;2024-01-07T04:09:45;3.90;1.00
20384;DHT22;46458;50.966;7.002;2024-01-07T04:12:14;3.90;1.00
20384;DHT22;46458;50.966;7.002;2024-01-07T04:14:43;3.90;1.00
20384;DHT22;46458;50.966;7.002;2024-01-07T04:17:12;3.90;1.00
20384;DHT22;46458;50.966;7.002;2024-01-07T04:19:40;3.90;1.00
20384;DHT22;46458;50.966;7.002;2024-01-07T04:22:09;3.90;99.90
20384;DHT22;46458;50.966;7.002;2024-01-07T04:24:41;3.90;1.00
20384;DHT22;46458;50.966;7.002;2024-01-07T04:27:12;3.80;1.00
20384;DHT22;46458;50.966;7.002;2024-01-07T04:29:41;3.80;1.00
20384;DHT22;46458;50.966;7.002;2024-01-07T04:32:10;3.90;1.00
20384;DHT22;46458;50.966;7.002;2024-01-07T04:34:39;3.80;50.00
20384;DHT22;46458;50.966;7.002;2024-01-07T04:37:08;3.80;99.90
20384;DHT22;46458;50.966;7.002;2024-01-07T04:39:36;3.50;1.00
20384;DHT22;46458;50.966;7.002;2024-01-07T04:42:06;3.80;1.00
20384;DHT22;46458;50.966;7.002;2024-01-07T04:44:37;3.80;84.00
20384;DHT22;46458;50.966;7.002;2024-01-07T04:47:27;3.90;1.00
20384;DHT22;46458;50.966;7.002;2024-01-07T04:49:57;3.90;1.00
20384;DHT22;46458;50.966;7.002;2024-01-07T04:52:26;3.90;1.00
20384;DHT22;46458;50.966;7.002;2024-01-07T04:54:56;3.90;1.00
20384;DHT22;46458;50.966;7.002;2024-01-07T04:57:25;3.90;47.70
20384;DHT22;46458;50.966;7.002;2024-01-07T04:59:56;3.80;91.20
20384;DHT22;46458;50.966;7.002;2024-01-07T05:02:25;3.80;1.00
20384;DHT22;46458;50.966;7.002;2024-01-07T05:04:53;3.90;1.00
20384;DHT22;46458;50.966;7.002;2024-01-07T05:07:22;3.90;1.00
20384;DHT22;46458;50.966;7.002;2024-01-07T05:09:51;4.20;1.00
20384;DHT22;46458;50.966;7.002;2024-01-07T05:12:20;3.80;1.00
20384;DHT22;46458;50.966;7.002;2024-01-07T05:14:50;3.80;99.90
20384;DHT22;46458;50.966;7.002;2024-01-07T05:17:21;3.80;99.90
20384;DHT22;46458;50.966;7.002;2024-01-07T05:19:50;3.80;99.90
20384;DHT22;46458;50.966;7.002;2024-01-07T05:22:19;3.80;1.00
20384;DHT22;46458;50.966;7.002;2024-01-07T05:24:47;3.90;99.90
20384;DHT22;46458;50.966;7.002;2024-01-07T05:27:16;3.90;1.00
20384;DHT22;46458;50.966;7.002;2024-01-07T05:29:45;3.80;1.00
20384;DHT22;46458;50.966;7.002;2024-01-07T05:32:15;3.80;99.90
20384;DHT22;46458;50.966;7.002;2024-01-07T05:34:46;3.80;1.00
20384;DHT22;46458;50.966;7.002;2024-01-07T05:37:16;3.70;1.00
20384;DHT22;46458;50.966;7.002;2024-01-07T05:39:45;3.80;1.00
20384;DHT22;46458;50.966;7.002;2024-01-07T05:42:13;3.70;1.00
20384;DHT22;46458;50.966;7.002;2024-01-07T05:44:42;3.70;99.90
20384;DHT22;46458;50.966;7.002;2024-01-07T05:47:11;3.70;99.90
20384;DHT22;46458;50.966;7.002;2024-01-07T05:49:40;3.50;99.90
20384;DHT22;46458;50.966;7.002;2024-01-07T05:52:11;3.70;1.00
20384;DHT22;46458;50.966;7.002;2024-01-07T05:54:40;3.70;1.00
20384;DHT22;46458;50.966;7.002;2024-01-07T05:57:09;3.70;99.90
20384;DHT22;46458;50.966;7.002;2024-01-07T05:59:38;3.60;99.90
20384;DHT22;46458;50.966;7.002;2024-01-07T06:02:06;3.60;1.00
20384;DHT22;46458;50.966;7.002;2024-01-07T06:04:37;3.60;99.90
20384;DHT22;46458;50.966;7.002;2024-01-07T06:07:06;3.60;49.60
20384;DHT22;46458;50.966;7.002;2024-01-07T06:09:37;3.60;1.00
20384;DHT22;46458;50.966;7.002;2024-01-07T06:12:06;3.60;1.00
20384;DHT22;46458;50.966;7.002;2024-01-07T06:14:40;3.60;1.00
20384;DHT22;46458;50.966;7.002;2024-01-07T06:17:09;3.50;99.90
20384;DHT22;46458;50.966;7.002;2024-01-07T06:19:38;3.60;99.90
20384;DHT22;46458;50.966;7.002;2024-01-07T06:22:07;3.60;1.00
20384;DHT22;46458;50.966;7.002;2024-01-07T06:24:38;3.60;1.00
20384;DHT22;46458;50.966;7.002;2024-01-07T06:27:08;3.60;1.00
20384;DHT22;46458;50.966;7.002;2024-01-07T06:29:36;3.60;1.00
20384;DHT22;46458;50.966;7.002;2024-01-07T06:32:05;3.50;99.90
20384;DHT22;46458;50.966;7.002;2024-01-07T06:34:35;3.60;99.90
20384;DHT22;46458;50.966;7.002;2024-01-07T06:37:04;3.50;1.00
20384;DHT22;46458;50.966;7.002;2024-01-07T06:39:38;3.50;1.00
20384;DHT22;46458;50.966;7.002;2024-01-07T06:42:07;3.50;1.00
20384;DHT22;46458;50.966;7.002;2024-01-07T06:44:36;3.50;1.00
20384;DHT22;46458;50.966;7.002;2024-01-07T06:47:05;3.40;1.00
20384;DHT22;46458;50.966;7.002;2024-01-07T06:49:33;3.40;1.00
20384;DHT22;46458;50.966;7.002;2024-01-07T06:52:00;3.40;1.00
20384;DHT22;46458;50.966;7.002;2024-01-07T06:54:28;3.30;1.00
20384;DHT22;46458;50.966;7.002;2024-01-07T06:57:00;3.30;1.00
20384;DHT22;46458;50.966;7.002;2024-01-07T06:59:28;3.30;1.00
20384;DHT22;46458;50.966;7.002;2024-01-07T07:01:57;3.70;1.00
20384;DHT22;46458;50.966;7.002;2024-01-07T07:04:26;3.40;1.00
20384;DHT22;46458;50.966;7.002;2024-01-07T07:06:55;3.30;1.00
20384;DHT22;46458;50.966;7.002;2024-01-07T07:09:26;3.30;1.00
20384;DHT22;46458;50.966;7.002;2024-01-07T07:11:54;3.20;1.00
20384;DHT22;46458;50.966;7.002;2024-01-07T07:14:26;3.30;1.00
20384;DHT22;46458;50.966;7.002;2024-01-07T07:16:55;3.30;1.00
20384;DHT22;46458;50.966;7.002;2024-01-07T07:19:24;3.30;1.00
20384;DHT22;46458;50.966;7.002;2024-01-07T07:21:53;3.20;99.90
20384;DHT22;46458;50.966;7.002;2024-01-07T07:24:21;3.20;1.00
20384;DHT22;46458;50.966;7.002;2024-01-07T07:26:50;3.10;1.00
20384;DHT22;46458;50.966;7.002;2024-01-07T07:29:19;3.10;1.00
20384;DHT22;46458;50.966;7.002;2024-01-07T07:31:51;3.20;99.90
20384;DHT22;46458;50.966;7.002;2024-01-07T07:34:19;3.30;1.00
20384;DHT22;46458;50.966;7.002;2024-01-07T07:36:48;3.30;1.00
20384;DHT22;46458;50.966;7.002;2024-01-07T07:39:17;3.40;1.00
20384;DHT22;46458;50.966;7.002;2024-01-07T07:41:46;3.40;99.90
20384;DHT22;46458;50.966;7.002;2024-01-07T07:44:15;3.40;40.60
20384;DHT22;46458;50.966;7.002;2024-01-07T07:46:43;3.40;93.70
20384;DHT22;46458;50.966;7.002;2024-01-07T07:49:15;3.40;99.90
20384;DHT22;46458;50.966;7.002;2024-01-07T07:51:46;3.40;99.90
20384;DHT22;46458;50.966;7.002;2024-01-07T07:54:15;3.40;99.90
20384;DHT22;46458;50.966;7.002;2024-01-07T07:56:44;3.40;1.00
20384;DHT22;46458;50.966;7.002;2024-01-07T07:59:13;3.40;1.00
20384;DHT22;46458;50.966;7.002;2024-01-07T08:01:42;3.50;1.00
20384;DHT22;46458;50.966;7.002;2024-01-07T08:04:14;3.30;99.90
20384;DHT22;46458;50.966;7.002;2024-01-07T08:06:42;3.30;1.00
20384;DHT22;46458;50.966;7.002;2024-01-07T08:09:11;3.20;8.70
20384;DHT22;46458;50.966;7.002;2024-01-07T08:11:40;3.20;99.90
20384;DHT22;46458;50.966;7.002;2024-01-07T08:14:12;3.10;1.00
20384;DHT22;46458;50.966;7.002;2024-01-07T08:16:40;3.20;1.00
20384;DHT22;46458;50.966;7.002;2024-01-07T08:19:09;3.20;1.00
20384;DHT22;46458;50.966;7.002;2024-01-07T08:21:41;3.10;1.00
20384;DHT22;46458;50.966;7.002;2024-01-07T08:24:10;3.10;1.00
20384;DHT22;46458;50.966;7.002;2024-01-07T08:26:38;3.30;1.00
20384;DHT22;46458;50.966;7.002;2024-01-07T08:29:07;3.30;1.00
20384;DHT22;46458;50.966;7.002;2024-01-07T08:31:36;3.30;1.00
20384;DHT22;46458;50.966;7.002;2024-01-07T08:34:05;3.20;1.00
20384;DHT22;46458;50.966;7.002;2024-01-07T08:36:37;3.30;1.00
20384;DHT22;46458;50.966;7.002;2024-01-07T08:39:08;3.40;1.00
20384;DHT22;46458;50.966;7.002;2024-01-07T08:41:37;3.40;1.00
20384;DHT22;46458;50.966;7.002;2024-01-07T08:44:03;3.40;1.00
20384;DHT22;46458;50.966;7.002;2024-01-07T08:46:34;3.10;99.90
20384;DHT22;46458;50.966;7.002;2024-01-07T08:49:03;3.30;1.00
20384;DHT22;46458;50.966;7.002;2024-01-07T08:51:32;3.50;1.00
20384;DHT22;46458;50.966;7.002;2024-01-07T08:54:01;3.50;1.00
20384;DHT22;46458;50.966;7.002;2024-01-07T08:56:32;3.60;1.00
20384;DHT22;46458;50.966;7.002;2024-01-07T08:59:01;3.40;1.00
20384;DHT22;46458;50.966;7.002;2024-01-07T09:01:30;3.50;99.90
20384;DHT22;46458;50.966;7.002;2024-01-07T09:03:59;3.40;99.90
20384;DHT22;46458;50.966;7.002;2024-01-07T09:06:28;3.40;1.00
20384;DHT22;46458;50.966;7.002;2024-01-07T09:08:58;3.30;1.00
20384;DHT22;46458;50.966;7.002;2024-01-07T09:11:26;3.40;1.00
20384;DHT22;46458;50.966;7.002;2024-01-07T09:13:58;3.40;1.00
20384;DHT22;46458;50.966;7.002;2024-01-07T09:16:27;3.30;99.90
20384;DHT22;46458;50.966;7.002;2024-01-07T09:18:56;3.50;88.70
20384;DHT22;46458;50.966;7.002;2024-01-07T09:21:25;3.50;1.00
20384;DHT22;46458;50.966;7.002;2024-01-07T09:23:53;3.30;99.90
20384;DHT22;46458;50.966;7.002;2024-01-07T09:26:22;3.30;1.00
20384;DHT22;46458;50.966;7.002;2024-01-07T09:28:51;3.30;1.00
20384;DHT22;46458;50.966;7.002;2024-01-07T09:31:22;3.40;99.90
20384;DHT22;46458;50.966;7.002;2024-01-07T09:33:54;3.30;1.00
20384;DHT22;46458;50.966;7.002;2024-01-07T09:36:23;3.30;1.00
20384;DHT22;46458;50.966;7.002;2024-01-07T09:38:52;3.40;99.90
20384;DHT22;46458;50.966;7.002;2024-01-07T09:41:22;3.40;22.10
20384;DHT22;46458;50.966;7.002;2024-01-07T09:43:51;3.40;1.00
20384;DHT22;46458;50.966;7.002;2024-01-07T09:46:23;3.40;99.90
20384;DHT22;46458;50.966;7.002;2024-01-07T09:48:52;3.30;99.90
20384;DHT22;46458;50.966;7.002;2024-01-07T09:51:22;3.40;1.00
20384;DHT22;46458;50.966;7.002;2024-01-07T09:53:56;3.40;99.90
20384;DHT22;46458;50.966;7.002;2024-01-07T09:56:26;3.50;99.90
20384;DHT22;46458;50.966;7.002;2024-01-07T09:58:57;3.60;1.00
20384;DHT22;46458;50.966;7.002;2024-01-07T10:01:30;3.60;1.00
20384;DHT22;46458;50.966;7.002;2024-01-07T10:04:01;3.70;1.00
20384;DHT22;46458;50.966;7.002;2024-01-07T10:06:30;3.80;99.90
20384;DHT22;46458;50.966;7.002;2024-01-07T10:08:59;3.70;52.30
20384;DHT22;46458;50.966;7.002;2024-01-07T10:11:28;3.80;1.00
20384;DHT22;46458;50.966;7.002;2024-01-07T10:13:57;3.70;1.00
20384;DHT22;46458;50.966;7.002;2024-01-07T10:16:29;3.70;1.00
20384;DHT22;46458;50.966;7.002;2024-01-07T10:18:58;3.80;1.00
20384;DHT22;46458;50.966;7.002;2024-01-07T10:21:27;3.80;1.00
20384;DHT22;46458;50.966;7.002;2024-01-07T10:24:07;3.80;1.00
20384;DHT22;46458;50.966;7.002;2024-01-07T10:26:37;3.80;1.00
20384;DHT22;46458;50.966;7.002;2024-01-07T10:29:06;3.70;1.00
20384;DHT22;46458;50.966;7.002;2024-01-07T10:31:38;3.80;1.00
20384;DHT22;46458;50.966;7.002;2024-01-07T10:34:08;3.80;1.00
20384;DHT22;46458;50.966;7.002;2024-01-07T10:36:38;3.70;1.00
20384;DHT22;46458;50.966;7.002;2024-01-07T10:39:07;3.80;1.00
20384;DHT22;46458;50.966;7.002;2024-01-07T10:41:37;3.70;1.00
20384;DHT22;46458;50.966;7.002;2024-01-07T10:44:08;3.60;1.00
20384;DHT22;46458;50.966;7.002;2024-01-07T10:46:39;3.70;1.00
20384;DHT22;46458;50.966;7.002;2024-01-07T10:49:16;3.60;1.00
20384;DHT22;46458;50.966;7.002;2024-01-07T10:51:55;3.50;1.00
20384;DHT22;46458;50.966;7.002;2024-01-07T10:54:28;3.50;1.00
20384;DHT22;46458;50.966;7.002;2024-01-07T10:57:01;3.40;1.00
20384;DHT22;46458;50.966;7.002;2024-01-07T10:59:34;3.50;1.00
20384;DHT22;46458;50.966;7.002;2024-01-07T11:02:07;3.50;1.00
20384;DHT22;46458;50.966;7.002;2024-01-07T11:04:43;3.30;1.00
20384;DHT22;46458;50.966;7.002;2024-01-07T11:07:19;3.40;1.00
20384;DHT22;46458;50.966;7.002;2024-01-07T11:09:56;3.70;1.00
20384;DHT22;46458;50.966;7.002;2024-01-07T11:12:31;3.50;1.00
20384;DHT22;46458;50.966;7.002;2024-01-07T11:15:00;3.50;1.00
20384;DHT22;46458;50.966;7.002;2024-01-07T11:17:45;3.60;1.00
20384;DHT22;46458;50.966;7.002;2024-01-07T11:20:21;3.80;1.00
20384;DHT22;46458;50.966;7.002;2024-01-07T11:22:52;3.90;1.00
20384;DHT22;46458;50.966;7.002;2024-01-07T11:25:41;4.20;1.00
20384;DHT22;46458;50.966;7.002;2024-01-07T11:28:12;3.70;1.00
20384;DHT22;46458;50.966;7.002;2024-01-07T11:30:41;3.60;1.00
20384;DHT22;46458;50.966;7.002;2024-01-07T11:33:15;3.70;1.00
20384;DHT22;46458;50.966;7.002;2024-01-07T11:35:57;3.60;1.00
20384;DHT22;46458;50.966;7.002;2024-01-07T11:38:27;3.70;1.00
20384;DHT22;46458;50.966;7.002;2024-01-07T11:40:56;3.70;1.00
20384;DHT22;46458;50.966;7.002;2024-01-07T11:43:25;3.60;1.00
20384;DHT22;46458;50.966;7.002;2024-01-07T11:45:55;3.50;1.00
20384;DHT22;46458;50.966;7.002;2024-01-07T11:48:26;3.50;1.00
20384;DHT22;46458;50.966;7.002;2024-01-07T11:50:55;3.50;1.00
20384;DHT22;46458;50.966;7.002;2024-01-07T11:53:24;3.50;1.00
20384;DHT22;46458;50.966;7.002;2024-01-07T11:55:53;3.40;1.00
20384;DHT22;46458;50.966;7.002;2024-01-07T11:58:21;3.40;1.00
20384;DHT22;46458;50.966;7.002;2024-01-07T12:00:50;3.40;1.00
20384;DHT22;46458;50.966;7.002;2024-01-07T12:03:19;3.50;1.00
20384;DHT22;46458;50.966;7.002;2024-01-07T12:05:50;3.50;1.00
20384;DHT22;46458;50.966;7.002;2024-01-07T12:08:19;3.50;1.00
20384;DHT22;46458;50.966;7.002;2024-01-07T12:10:49;3.50;1.00
20384;DHT22;46458;50.966;7.002;2024-01-07T12:13:18;3.50;1.00
20384;DHT22;46458;50.966;7.002;2024-01-07T12:15:47;3.60;1.00
20384;DHT22;46458;50.966;7.002;2024-01-07T12:18:16;3.50;99.90
20384;DHT22;46458;50.966;7.002;2024-01-07T12:20:57;3.50;1.00
20384;DHT22;46458;50.966;7.002;2024-01-07T12:23:29;3.50;1.00
20384;DHT22;46458;50.966;7.002;2024-01-07T12:26:08;3.50;1.00
20384;DHT22;46458;50.966;7.002;2024-01-07T12:28:37;3.50;99.90
20384;DHT22;46458;50.966;7.002;2024-01-07T12:31:07;3.60;99.90
20384;DHT22;46458;50.966;7.002;2024-01-07T12:33:37;3.80;99.90
20384;DHT22;46458;50.966;7.002;2024-01-07T12:36:09;3.90;99.90
20384;DHT22;46458;50.966;7.002;2024-01-07T12:38:38;4.00;99.90
20384;DHT22;46458;50.966;7.002;2024-01-07T12:41:07;4.10;99.90
20384;DHT22;46458;50.966;7.002;2024-01-07T12:43:37;4.10;99.90
20384;DHT22;46458;50.966;7.002;2024-01-07T12:46:06;4.30;99.90
20384;DHT22;46458;50.966;7.002;2024-01-07T12:48:35;4.30;99.90
20384;DHT22;46458;50.966;7.002;2024-01-07T12:51:04;4.20;99.90
20384;DHT22;46458;50.966;7.002;2024-01-07T12:53:36;4.10;99.90
20384;DHT22;46458;50.966;7.002;2024-01-07T12:56:05;4.00;99.90
20384;DHT22;46458;50.966;7.002;2024-01-07T12:58:34;3.90;99.90
20384;DHT22;46458;50.966;7.002;2024-01-07T13:01:03;3.70;99.90
20384;DHT22;46458;50.966;7.002;2024-01-07T13:03:32;3.70;99.90
20384;DHT22;46458;50.966;7.002;2024-01-07T13:06:01;3.60;99.90
20384;DHT22;46458;50.966;7.002;2024-01-07T13:08:30;3.40;99.90
20384;DHT22;46458;50.966;7.002;2024-01-07T13:11:01;3.40;99.90
20384;DHT22;46458;50.966;7.002;2024-01-07T13:13:31;3.40;99.90
20384;DHT22;46458;50.966;7.002;2024-01-07T13:16:00;3.30;99.90
20384;DHT22;46458;50.966;7.002;2024-01-07T13:18:29;3.10;99.90
20384;DHT22;46458;50.966;7.002;2024-01-07T13:21:01;3.00;99.90
20384;DHT22;46458;50.966;7.002;2024-01-07T13:23:35;3.00;99.90
20384;DHT22;46458;50.966;7.002;2024-01-07T13:26:06;3.00;99.90
20384;DHT22;46458;50.966;7.002;2024-01-07T13:28:36;2.80;99.90
20384;DHT22;46458;50.966;7.002;2024-01-07T13:31:04;2.80;99.90
20384;DHT22;46458;50.966;7.002;2024-01-07T13:33:33;2.80;99.90
20384;DHT22;46458;50.966;7.002;2024-01-07T13:36:02;2.80;99.90
20384;DHT22;46458;50.966;7.002;2024-01-07T13:38:35;2.80;99.90
20384;DHT22;46458;50.966;7.002;2024-01-07T13:41:07;2.90;99.90
20384;DHT22;46458;50.966;7.002;2024-01-07T13:43:36;3.10;99.90
20384;DHT22;46458;50.966;7.002;2024-01-07T13:46:06;3.30;99.90
20384;DHT22;46458;50.966;7.002;2024-01-07T13:48:35;3.60;99.90
20384;DHT22;46458;50.966;7.002;2024-01-07T13:51:05;3.50;99.90
20384;DHT22;46458;50.966;7.002;2024-01-07T13:53:34;3.20;99.90
20384;DHT22;46458;50.966;7.002;2024-01-07T13:56:06;3.10;99.90
20384;DHT22;46458;50.966;7.002;2024-01-07T13:58:35;2.90;99.90
20384;DHT22;46458;50.966;7.002;2024-01-07T14:01:04;2.80;99.90
20384;DHT22;46458;50.966;7.002;2024-01-07T14:03:33;2.70;99.90
20384;DHT22;46458;50.966;7.002;2024-01-07T14:06:02;2.60;99.90
20384;DHT22;46458;50.966;7.002;2024-01-07T14:08:31;2.60;99.90
20384;DHT22;46458;50.966;7.002;2024-01-07T14:11:00;2.40;99.90
20384;DHT22;46458;50.966;7.002;2024-01-07T14:13:32;2.50;99.90
20384;DHT22;46458;50.966;7.002;2024-01-07T14:16:02;2.40;99.90
20384;DHT22;46458;50.966;7.002;2024-01-07T14:18:32;2.20;99.90
20384;DHT22;46458;50.966;7.002;2024-01-07T14:21:01;2.10;99.90
20384;DHT22;46458;50.966;7.002;2024-01-07T14:23:30;2.10;99.90
20384;DHT22;46458;50.966;7.002;2024-01-07T14:25:59;2.10;99.90
20384;DHT22;46458;50.966;7.002;2024-01-07T14:28:31;2.10;99.90
20384;DHT22;46458;50.966;7.002;2024-01-07T14:31:01;2.00;1.00
20384;DHT22;46458;50.966;7.002;2024-01-07T14:33:30;1.90;1.00
20384;DHT22;46458;50.966;7.002;2024-01-07T14:35:59;1.80;1.00
20384;DHT22;46458;50.966;7.002;2024-01-07T14:38:30;1.70;99.90
20384;DHT22;46458;50.966;7.002;2024-01-07T14:40:59;1.70;99.90
20384;DHT22;46458;50.966;7.002;2024-01-07T14:43:28;1.80;99.90
20384;DHT22;46458;50.966;7.002;2024-01-07T14:45:59;1.70;99.90
20384;DHT22;46458;50.966;7.002;2024-01-07T14:48:28;1.70;99.90
20384;DHT22;46458;50.966;7.002;2024-01-07T14:50:57;1.70;99.90
20384;DHT22;46458;50.966;7.002;2024-01-07T14:53:26;1.70;99.90
20384;DHT22;46458;50.966;7.002;2024-01-07T14:55:55;1.70;99.90
20384;DHT22;46458;50.966;7.002;2024-01-07T14:58:23;1.50;99.90
20384;DHT22;46458;50.966;7.002;2024-01-07T15:00:52;1.50;99.90
20384;DHT22;46458;50.966;7.002;2024-01-07T15:03:26;1.60;99.90
20384;DHT22;46458;50.966;7.002;2024-01-07T15:05:56;1.60;99.90
20384;DHT22;46458;50.966;7.002;2024-01-07T15:08:25;1.60;99.90
20384;DHT22;46458;50.966;7.002;2024-01-07T15:10:53;1.60;99.90
20384;DHT22;46458;50.966;7.002;2024-01-07T15:13:22;1.50;99.90
20384;DHT22;46458;50.966;7.002;2024-01-07T15:15:52;1.50;99.90
20384;DHT22;46458;50.966;7.002;2024-01-07T15:18:21;1.40;99.90
20384;DHT22;46458;50.966;7.002;2024-01-07T15:20:53;1.40;99.90
20384;DHT22;46458;50.966;7.002;2024-01-07T15:23:23;1.50;99.90
20384;DHT22;46458;50.966;7.002;2024-01-07T15:25:52;1.50;99.90
20384;DHT22;46458;50.966;7.002;2024-01-07T15:28:21;1.60;99.90
20384;DHT22;46458;50.966;7.002;2024-01-07T15:30:50;1.50;99.90
20384;DHT22;46458;50.966;7.002;2024-01-07T15:33:19;1.50;99.90
20384;DHT22;46458;50.966;7.002;2024-01-07T15:35:48;1.50;99.90
20384;DHT22;46458;50.966;7.002;2024-01-07T15:38:19;1.40;99.90
20384;DHT22;46458;50.966;7.002;2024-01-07T15:40:48;1.40;99.90
20384;DHT22;46458;50.966;7.002;2024-01-07T15:43:17;1.40;99.90
20384;DHT22;46458;50.966;7.002;2024-01-07T15:45:46;1.30;99.90
20384;DHT22;46458;50.966;7.002;2024-01-07T15:48:15;1.40;99.90
20384;DHT22;46458;50.966;7.002;2024-01-07T15:50:43;1.40;99.90
20384;DHT22;46458;50.966;7.002;2024-01-07T15:53:12;1.40;99.90
20384;DHT22;46458;50.966;7.002;2024-01-07T15:55:44;1.40;99.90
20384;DHT22;46458;50.966;7.002;2024-01-07T15:58:14;1.40;99.90
20384;DHT22;46458;50.966;7.002;2024-01-07T16:00:43;1.40;99.90
20384;DHT22;46458;50.966;7.002;2024-01-07T16:03:12;1.40;99.90
20384;DHT22;46458;50.966;7.002;2024-01-07T16:05:41;1.40;99.90
20384;DHT22;46458;50.966;7.002;2024-01-07T16:08:10;1.40;99.90
20384;DHT22;46458;50.966;7.002;2024-01-07T16:10:39;1.30;99.90